createdAt,value
2023-01-18T00:00:41.912Z,97765.69
2023-01-18T00:03:44.630Z,97766.53
2023-01-18T00:06:49.489Z,97726.97
2023-01-18T00:09:53.221Z,97733.75
2023-01-18T00:12:58.507Z,97729.25
2023-01-18T00:16:04.203Z,97717.00
2023-01-18T00:19:13.125Z,97690.97
2023-01-18T00:22:17.236Z,97694.31
2023-01-18T00:25:26.111Z,97696.81
2023-01-18T00:28:29.407Z,97711.56
2023-01-18T00:31:33.379Z,97729.63
2023-01-18T00:34:38.011Z,97760.66
2023-01-18T00:37:40.576Z,97776.19
2023-01-18T00:40:44.993Z,97796.84
2023-01-18T00:43:47.924Z,97808.97
2023-01-18T00:46:51.410Z,97840.00
2023-01-18T00:49:54.232Z,97865.78
2023-01-18T00:52:59.006Z,97864.19
2023-01-18T00:56:02.186Z,97853.03
2023-01-18T00:59:05.534Z,97835.09
2023-01-18T01:02:09.536Z,97834.19
2023-01-18T01:05:36.048Z,97828.16
2023-01-18T01:08:38.919Z,97829.09
2023-01-18T01:12:05.777Z,97821.47
2023-01-18T01:15:27.954Z,97800.06
2023-01-18T01:18:49.684Z,97813.00
2023-01-18T01:22:11.413Z,97814.81
2023-01-18T01:25:33.742Z,97813.16
2023-01-18T01:28:42.386Z,97805.47
2023-01-18T01:31:45.439Z,97808.09
2023-01-18T01:34:47.946Z,97823.84
2023-01-18T01:37:51.418Z,97843.81
2023-01-18T01:41:05.603Z,97846.59
2023-01-18T01:44:34.068Z,97841.66
2023-01-18T01:47:44.961Z,97834.94
2023-01-18T01:50:47.699Z,97838.53
2023-01-18T01:53:51.477Z,97850.63
2023-01-18T01:57:06.126Z,97857.56
2023-01-18T02:00:14.715Z,97842.13
2023-01-18T02:03:18.489Z,97848.19
2023-01-18T02:06:31.573Z,97845.63
2023-01-18T02:09:34.928Z,97857.69
2023-01-18T02:12:40.854Z,97881.84
2023-01-18T02:16:02.810Z,97885.25
2023-01-18T02:19:23.363Z,97884.41
2023-01-18T02:22:50.095Z,97880.03
2023-01-18T02:26:11.212Z,97884.31
2023-01-18T02:29:17.648Z,97887.72
2023-01-18T02:32:28.915Z,97890.28
2023-01-18T02:35:47.366Z,97875.63
2023-01-18T02:38:56.020Z,97877.31
2023-01-18T02:42:28.410Z,97882.44
2023-01-18T02:46:04.117Z,97883.28
2023-01-18T02:49:18.265Z,97895.34
2023-01-18T02:52:41.635Z,97899.59
2023-01-18T02:56:11.902Z,97886.69
2023-01-18T02:59:18.021Z,97878.03
2023-01-18T03:02:26.509Z,97878.00
2023-01-18T03:05:31.046Z,97880.56
2023-01-18T03:08:55.223Z,97877.13
2023-01-18T03:12:17.812Z,97869.41
2023-01-18T03:15:52.755Z,97865.94
2023-01-18T03:19:02.245Z,97865.09
2023-01-18T03:22:06.261Z,97865.91
2023-01-18T03:25:13.019Z,97868.47
2023-01-18T03:28:41.151Z,97858.13
2023-01-18T03:32:08.473Z,97861.59
2023-01-18T03:35:16.335Z,97848.69
2023-01-18T03:38:21.260Z,97827.13
2023-01-18T03:41:27.439Z,97845.25
2023-01-18T03:44:38.476Z,97853.88
2023-01-18T03:47:41.501Z,97853.84
2023-01-18T03:50:49.210Z,97859.84
2023-01-18T03:54:11.020Z,97860.69
2023-01-18T03:57:47.044Z,97865.84
2023-01-18T04:00:53.015Z,97858.09
2023-01-18T04:03:56.263Z,97869.31
2023-01-18T04:06:59.467Z,97847.78
2023-01-18T04:10:02.722Z,97848.66
2023-01-18T04:13:06.359Z,97844.41
2023-01-18T04:16:09.431Z,97842.69
2023-01-18T04:19:12.117Z,97838.31
2023-01-18T04:22:15.796Z,97833.16
2023-01-18T04:25:18.427Z,97865.03
2023-01-18T04:28:25.514Z,97876.19
2023-01-18T04:31:28.325Z,97876.19
2023-01-18T04:34:32.696Z,97871.91
2023-01-18T04:37:38.265Z,97879.66
2023-01-18T04:40:41.983Z,97877.09
2023-01-18T04:43:46.520Z,97880.56
2023-01-18T04:46:52.873Z,97888.31
2023-01-18T04:49:57.586Z,97882.31
2023-01-18T04:53:00.875Z,97879.72
2023-01-18T04:56:05.021Z,97901.25
2023-01-18T04:59:16.927Z,97904.69
2023-01-18T05:02:21.299Z,97917.63
2023-01-18T05:05:26.370Z,97927.06
2023-01-18T05:08:28.917Z,97932.22
2023-01-18T05:11:33.991Z,97936.50
2023-01-18T05:14:37.084Z,97924.47
2023-01-18T05:17:39.945Z,97929.59
2023-01-18T05:20:49.010Z,97935.59
2023-01-18T05:23:55.845Z,97957.97
2023-01-18T05:27:03.250Z,97948.47
2023-01-18T05:30:09.897Z,97942.44
2023-01-18T05:33:12.939Z,97935.53
2023-01-18T05:36:17.625Z,97932.06
2023-01-18T05:39:20.617Z,97950.13
2023-01-18T05:42:24.566Z,97956.06
2023-01-18T05:45:30.565Z,97947.47
2023-01-18T05:48:34.097Z,97951.75
2023-01-18T05:51:44.231Z,97962.06
2023-01-18T05:54:54.011Z,97945.63
2023-01-18T05:57:57.764Z,97931.88
2023-01-18T06:01:05.643Z,97948.16
2023-01-18T06:04:08.772Z,97971.34
2023-01-18T06:07:11.567Z,97982.53
2023-01-18T06:10:15.328Z,97984.19
2023-01-18T06:13:18.030Z,97983.28
2023-01-18T06:16:24.877Z,97990.88
2023-01-18T06:19:28.817Z,97993.22
2023-01-18T06:22:32.705Z,98001.84
2023-01-18T06:25:37.839Z,98006.91
2023-01-18T06:28:41.233Z,98014.63
2023-01-18T06:31:45.017Z,97988.72
2023-01-18T06:34:49.530Z,97938.69
2023-01-18T06:37:56.851Z,97912.59
2023-01-18T06:41:00.785Z,97920.25
2023-01-18T06:44:04.247Z,97934.84
2023-01-18T06:47:08.394Z,97909.75
2023-01-18T06:50:13.004Z,97964.84
2023-01-18T06:53:17.021Z,98017.34
2023-01-18T06:56:22.843Z,98024.28
2023-01-18T06:59:28.690Z,98031.38
2023-01-18T07:02:36.228Z,98058.91
2023-01-18T07:05:43.527Z,98039.12
2023-01-18T07:08:53.863Z,98036.63
2023-01-18T07:11:56.944Z,98045.22
2023-01-18T07:15:04.932Z,98064.19
2023-01-18T07:18:17.060Z,98085.69
2023-01-18T07:21:29.807Z,98100.25
2023-01-18T07:24:32.975Z,98106.97
2023-01-18T07:27:35.916Z,98113.00
2023-01-18T07:30:39.678Z,98106.97
2023-01-18T07:33:42.663Z,98109.56
2023-01-18T07:36:45.516Z,98103.47
2023-01-18T07:39:50.159Z,98128.31
2023-01-18T07:43:00.172Z,98151.50
2023-01-18T07:46:05.223Z,98156.56
2023-01-18T07:49:10.315Z,98160.84
2023-01-18T07:52:14.584Z,98160.81
2023-01-18T07:55:21.823Z,98165.16
2023-01-18T07:58:25.384Z,98174.03
2023-01-18T08:01:37.007Z,98180.22
2023-01-18T08:04:43.196Z,98187.41
2023-01-18T08:07:47.023Z,98191.88
2023-01-18T08:10:59.007Z,98209.06
2023-01-18T08:14:04.386Z,98223.88
2023-01-18T08:17:09.100Z,98228.22
2023-01-18T08:20:18.794Z,98236.34
2023-01-18T08:23:24.452Z,98252.53
2023-01-18T08:26:28.245Z,98249.72
2023-01-18T08:29:32.863Z,98251.44
2023-01-18T08:32:36.499Z,98246.88
2023-01-18T08:35:47.700Z,98240.84
2023-01-18T08:38:57.457Z,98257.47
2023-01-18T08:42:04.852Z,98265.59
2023-01-18T08:45:09.742Z,98266.13
2023-01-18T08:48:15.155Z,98273.25
2023-01-18T08:51:23.128Z,98297.06
2023-01-18T08:54:29.812Z,98298.34
2023-01-18T08:57:34.728Z,98303.38
2023-01-18T09:00:38.818Z,98305.00
2023-01-18T09:03:43.649Z,98307.50
2023-01-18T09:06:51.992Z,98316.19
2023-01-18T09:09:55.164Z,98320.56
2023-01-18T09:13:00.130Z,98330.09
2023-01-18T09:16:07.785Z,98347.31
2023-01-18T09:19:12.645Z,98380.28
2023-01-18T09:22:27.008Z,98406.16
2023-01-18T09:25:32.466Z,98418.88
2023-01-18T09:28:36.887Z,98410.16
2023-01-18T09:31:41.939Z,98430.84
2023-01-18T09:34:47.064Z,98432.44
2023-01-18T09:37:59.222Z,98434.34
2023-01-18T09:41:18.818Z,98447.50
2023-01-18T09:44:40.756Z,98441.53
2023-01-18T09:47:47.788Z,98454.75
2023-01-18T09:50:53.499Z,98454.81
2023-01-18T09:54:31.769Z,98455.13
2023-01-18T09:58:20.228Z,98443.31
2023-01-18T10:01:33.956Z,98459.19
2023-01-18T10:04:42.741Z,98464.22
2023-01-18T10:08:02.503Z,98471.72
2023-01-18T10:11:21.177Z,98472.59
2023-01-18T10:14:46.752Z,98482.09
2023-01-18T10:17:57.774Z,98493.22
2023-01-18T10:21:07.241Z,98492.03
2023-01-18T10:24:42.246Z,98501.69
2023-01-18T10:28:25.443Z,98497.16
2023-01-18T10:31:52.907Z,98497.88
2023-01-18T10:34:57.094Z,98500.63
2023-01-18T10:38:04.654Z,98511.88
2023-01-18T10:41:25.828Z,98526.53
2023-01-18T10:44:31.772Z,98531.75
2023-01-18T10:47:38.790Z,98542.31
2023-01-18T10:50:50.039Z,98559.06
2023-01-18T10:53:54.781Z,98575.59
2023-01-18T10:57:04.691Z,98575.25
2023-01-18T11:00:24.126Z,98581.06
2023-01-18T11:03:36.499Z,98586.94
2023-01-18T11:06:54.742Z,98583.19
2023-01-18T11:10:02.847Z,98591.06
2023-01-18T11:13:30.526Z,98592.72
2023-01-18T11:16:38.921Z,98605.44
2023-01-18T11:19:48.814Z,98620.91
2023-01-18T11:23:10.865Z,98613.13
2023-01-18T11:26:19.167Z,98619.28
2023-01-18T11:29:31.214Z,98618.47
2023-01-18T11:32:35.209Z,98629.72
2023-01-18T11:35:40.965Z,98628.84
2023-01-18T11:38:44.058Z,98640.91
2023-01-18T11:41:50.164Z,98659.78
2023-01-18T11:45:06.645Z,98660.59
2023-01-18T11:48:24.279Z,98677.09
2023-01-18T11:51:50.164Z,98670.06
2023-01-18T11:55:25.831Z,98681.63
2023-01-18T11:58:32.829Z,98680.94
2023-01-18T12:01:39.890Z,98681.72
2023-01-18T12:04:52.717Z,98686.72
2023-01-18T12:08:11.267Z,98693.62
2023-01-18T12:11:21.999Z,98698.88
2023-01-18T12:14:43.080Z,98701.44
2023-01-18T12:18:12.564Z,98703.84
2023-01-18T12:21:39.794Z,98722.94
2023-01-18T12:25:02.743Z,98737.50
2023-01-18T12:28:11.953Z,98742.59
2023-01-18T12:31:28.953Z,98753.94
2023-01-18T12:34:54.813Z,98757.19
2023-01-18T12:38:24.714Z,98760.66
2023-01-18T12:41:46.066Z,98758.00
2023-01-18T12:45:26.009Z,98752.56
2023-01-18T12:48:41.271Z,98769.69
2023-01-18T12:52:16.923Z,98779.06
2023-01-18T12:55:26.739Z,98783.47
2023-01-18T12:58:39.732Z,98787.06
2023-01-18T13:01:52.920Z,98792.22
2023-01-18T13:05:33.960Z,98793.97
2023-01-18T13:08:57.796Z,98796.50
2023-01-18T13:12:05.139Z,98813.78
2023-01-18T13:15:29.894Z,98812.78
2023-01-18T13:18:45.321Z,98830.91
2023-01-18T13:22:18.793Z,98841.34
2023-01-18T13:26:08.756Z,98840.50
2023-01-18T13:29:30.707Z,98839.59
2023-01-18T13:32:39.776Z,98850.75
2023-01-18T13:35:58.231Z,98847.22
2023-01-18T13:39:15.087Z,98835.84
2023-01-18T13:42:36.085Z,98832.34
2023-01-18T13:46:04.756Z,98829.72
2023-01-18T13:49:37.368Z,98834.03
2023-01-18T13:53:16.251Z,98863.41
2023-01-18T13:56:29.939Z,98875.56
2023-01-18T13:59:44.836Z,98884.25
2023-01-18T14:03:01.045Z,98869.53
2023-01-18T14:06:27.122Z,98882.47
2023-01-18T14:09:40.827Z,98878.03
2023-01-18T14:12:51.774Z,98876.19
2023-01-18T14:15:54.847Z,98875.13
2023-01-18T14:19:21.061Z,98885.34
2023-01-18T14:23:05.820Z,98884.22
2023-01-18T14:26:21.933Z,98897.88
2023-01-18T14:29:52.885Z,98900.31
2023-01-18T14:33:03.749Z,98900.12
2023-01-18T14:36:14.732Z,98911.13
2023-01-18T14:39:32.720Z,98917.91
2023-01-18T14:43:00.057Z,98917.59
2023-01-18T14:46:15.938Z,98924.31
2023-01-18T14:49:27.031Z,98931.97
2023-01-18T14:52:36.789Z,98921.44
2023-01-18T14:56:20.957Z,98922.22
2023-01-18T14:59:31.797Z,98920.31
2023-01-18T15:02:47.743Z,98910.56
2023-01-18T15:06:00.735Z,98899.94
2023-01-18T15:09:17.041Z,98910.91
2023-01-18T15:12:31.762Z,98913.16
2023-01-18T15:15:43.536Z,98911.03
2023-01-18T15:18:51.185Z,98916.03
2023-01-18T15:22:00.505Z,98912.41
2023-01-18T15:25:31.822Z,98903.63
2023-01-18T15:28:37.829Z,98898.06
2023-01-18T15:31:48.812Z,98900.16
2023-01-18T15:35:02.696Z,98928.53
2023-01-18T15:38:08.187Z,98936.16
2023-01-18T15:41:20.670Z,98937.91
2023-01-18T15:44:54.741Z,98927.56
2023-01-18T15:48:18.677Z,98936.28
2023-01-18T15:51:48.939Z,98949.25
2023-01-18T15:54:56.886Z,98962.31
2023-01-18T15:58:07.294Z,98967.53
2023-01-18T16:01:16.486Z,98984.56
2023-01-18T16:04:31.810Z,98981.91
2023-01-18T16:07:42.419Z,98989.78
2023-01-18T16:10:57.731Z,98998.56
2023-01-18T16:14:13.862Z,98993.44
2023-01-18T16:17:32.701Z,99002.06
2023-01-18T16:20:37.559Z,98987.37
2023-01-18T16:23:49.775Z,99001.97
2023-01-18T16:27:01.775Z,99018.41
2023-01-18T16:30:24.102Z,99002.84
2023-01-18T16:33:28.106Z,98996.09
2023-01-18T16:36:42.262Z,98994.50
2023-01-18T16:40:00.812Z,99000.69
2023-01-18T16:43:17.964Z,99002.44
2023-01-18T16:46:35.139Z,99004.41
2023-01-18T16:49:41.273Z,98993.25
2023-01-18T16:52:45.989Z,98985.59
2023-01-18T16:55:50.940Z,98997.66
2023-01-18T16:59:21.823Z,99015.78
2023-01-18T17:02:29.564Z,99019.16
2023-01-18T17:05:33.507Z,99019.13
2023-01-18T17:08:45.648Z,99003.53
2023-01-18T17:11:59.795Z,99006.16
2023-01-18T17:15:15.796Z,99011.44
2023-01-18T17:18:31.000Z,99029.56
2023-01-18T17:21:41.869Z,99047.44
2023-01-18T17:24:54.829Z,99052.56
2023-01-18T17:28:07.719Z,99057.84
2023-01-18T17:31:18.848Z,99055.16
2023-01-18T17:34:30.993Z,99060.19
2023-01-18T17:37:54.383Z,99078.44
2023-01-18T17:41:19.592Z,99095.66
2023-01-18T17:44:37.465Z,99108.63
2023-01-18T17:47:44.787Z,99108.69
2023-01-18T17:50:49.760Z,99112.19
2023-01-18T17:53:54.520Z,99111.34
2023-01-18T17:57:00.043Z,99112.31
2023-01-18T18:00:09.823Z,99114.88
2023-01-18T18:03:39.849Z,99128.62
2023-01-18T18:06:54.598Z,99132.09
2023-01-18T18:10:04.786Z,99129.56
2023-01-18T18:13:15.274Z,99138.09
2023-01-18T18:16:20.272Z,99140.63
2023-01-18T18:19:26.233Z,99137.97
2023-01-18T18:22:36.302Z,99126.72
2023-01-18T18:25:51.796Z,99115.50
2023-01-18T18:28:55.354Z,99113.81
2023-01-18T18:32:12.701Z,99118.06
2023-01-18T18:35:26.046Z,99113.72
2023-01-18T18:38:36.768Z,99119.75
2023-01-18T18:41:43.946Z,99119.63
2023-01-18T18:44:47.765Z,99115.28
2023-01-18T18:47:54.379Z,99104.84
2023-01-18T18:51:05.333Z,99099.63
2023-01-18T18:54:20.709Z,99103.09
2023-01-18T18:57:24.862Z,99109.19
2023-01-18T19:00:35.435Z,99104.91
2023-01-18T19:03:41.776Z,99100.56
2023-01-18T19:06:47.787Z,99096.25
2023-01-18T19:09:58.754Z,99093.69
2023-01-18T19:13:17.894Z,99092.75
2023-01-18T19:16:33.303Z,99083.25
2023-01-18T19:19:44.710Z,99094.59
2023-01-18T19:22:51.117Z,99106.75
2023-01-18T19:26:08.733Z,99111.91
2023-01-18T19:29:21.733Z,99105.94
2023-01-18T19:32:26.763Z,99104.91
2023-01-18T19:35:43.741Z,99093.69
2023-01-18T19:38:57.693Z,99087.56
2023-01-18T19:42:05.074Z,99097.09
2023-01-18T19:45:23.213Z,99101.37
2023-01-18T19:48:36.759Z,99097.09
2023-01-18T19:51:41.878Z,99100.56
2023-01-18T19:54:46.158Z,99102.25
2023-01-18T19:57:54.039Z,99097.97
2023-01-18T20:01:20.471Z,99100.66
2023-01-18T20:04:52.722Z,99104.91
2023-01-18T20:07:56.341Z,99103.13
2023-01-18T20:11:08.732Z,99093.47
2023-01-18T20:14:19.797Z,99095.16
2023-01-18T20:17:33.819Z,99092.50
2023-01-18T20:20:53.648Z,99083.78
2023-01-18T20:24:01.132Z,99084.91
2023-01-18T20:27:15.270Z,99101.25
2023-01-18T20:30:29.230Z,99103.78
2023-01-18T20:33:35.783Z,99101.25
2023-01-18T20:36:50.252Z,99094.91
2023-01-18T20:40:01.771Z,99083.75
2023-01-18T20:43:07.221Z,99084.81
2023-01-18T20:46:16.825Z,99094.16
2023-01-18T20:49:36.989Z,99116.66
2023-01-18T20:52:49.087Z,99111.28
2023-01-18T20:55:57.701Z,99108.66
2023-01-18T20:59:01.742Z,99100.28
2023-01-18T21:02:09.438Z,99090.03
2023-01-18T21:05:15.980Z,99083.69
2023-01-18T21:08:33.729Z,99081.28
2023-01-18T21:11:38.390Z,99077.63
2023-01-18T21:14:49.405Z,99083.50
2023-01-18T21:17:52.566Z,99062.81
2023-01-18T21:21:02.389Z,99071.41
2023-01-18T21:24:06.731Z,99068.72
2023-01-18T21:27:16.984Z,99065.34
2023-01-18T21:30:24.242Z,99061.88
2023-01-18T21:33:29.747Z,99066.13
2023-01-18T21:36:35.972Z,99079.00
2023-01-18T21:39:40.732Z,99092.81
2023-01-18T21:43:03.125Z,99095.34
2023-01-18T21:46:19.683Z,99088.47
2023-01-18T21:50:16.697Z,99080.72
2023-01-18T21:53:33.616Z,99079.88
2023-01-18T21:56:40.067Z,99103.09
2023-01-18T21:59:46.587Z,99099.53
2023-01-18T22:02:51.328Z,99090.06
2023-01-18T22:05:56.793Z,99101.25
2023-01-18T22:09:03.003Z,99087.44
2023-01-18T22:12:06.811Z,99100.38
2023-01-18T22:15:13.293Z,99119.28
2023-01-18T22:18:24.871Z,99114.94
2023-01-18T22:21:34.893Z,99110.56
2023-01-18T22:24:39.596Z,99114.84
2023-01-18T22:27:42.481Z,99100.94
2023-01-18T22:30:47.489Z,99101.81
2023-01-18T22:33:50.976Z,99102.66
2023-01-18T22:36:55.515Z,99094.84
2023-01-18T22:39:59.676Z,99085.28
2023-01-18T22:43:03.762Z,99087.78
2023-01-18T22:46:08.473Z,99089.34
2023-01-18T22:49:13.902Z,99083.28
2023-01-18T22:52:17.252Z,99071.25
2023-01-18T22:55:20.755Z,99071.31
2023-01-18T22:58:24.088Z,99071.25
2023-01-18T23:01:33.361Z,99067.62
2023-01-18T23:04:36.722Z,99070.28
2023-01-18T23:07:42.089Z,99062.47
2023-01-18T23:10:44.995Z,99064.00
2023-01-18T23:14:14.568Z,99053.72
2023-01-18T23:17:36.151Z,99056.28
2023-01-18T23:20:39.105Z,99045.03
2023-01-18T23:23:42.011Z,99035.47
2023-01-18T23:26:47.737Z,99033.78
2023-01-18T23:29:57.486Z,99019.97
2023-01-18T23:33:00.904Z,99007.84
2023-01-18T23:36:04.605Z,98998.34
2023-01-18T23:39:26.713Z,98995.66
2023-01-18T23:42:47.884Z,98981.03
2023-01-18T23:46:09.786Z,98982.69
2023-01-18T23:49:35.637Z,98979.28
2023-01-18T23:52:57.678Z,98976.72
2023-01-18T23:56:00.739Z,98973.19
2023-01-18T23:59:06.145Z,98970.53
